MSSS/SAL METAR and TAF weather

Enter ICAO airport designator
Station Type Date Time Source
MSSS METAR 2020/02/16 19:50 UTC NOAA

MSSS 161950Z 07004KT CAVOK 33/12 Q1012 A2990


Station Type Date Time Source
MSSS Decoded METAR 2020/02/16 19:50 UTC NOAA

San Salvador / Ilopango, El Salvador (MSSS) 13-42N 089-07W 621M
Feb 16, 2020 - 02:50 PM EST / 2020.02.16 1950 UTC
Wind: from the ENE (070 degrees) at 5 MPH (4 KT):0
Visibility: greater than 7 mile(s):0
Temperature: 91 F (33 C)
Dew Point: 53 F (12 C)
Relative Humidity: 27%
Pressure (altimeter): 29.9 in. Hg (1012 hPa)
ob: MSSS 161950Z 07004KT CAVOK 33/12 Q1012 A2990
cycle: 20

Station Type Date Time Source
MSSS TAF 2020/02/16 18:38 UTC NOAA

TAF MSSS 161525Z 1618/1718 35012KT 9999 SCT043 TX31/1618Z TN21/1712Z
TEMPO 1622/1701 15006KT

Example: see airport list